Gildeskaal — LLDI — position and weather

sailwx.info

Track history (hours):
 
Tides and Currents Weather Stations Pressure Air Temp Water Temp Dewpoint Dewpoint Depression Visibility Wind Speed Wind Dir Waves Ship Positions

Gildeskaal

Last reported at 2014-Jul-28 15:33 UTC. Time now 2014-Jul-28 16:31 UTC.
Position N 67°08' E 013°59'.

Length 52 m; draft 3.2 m.

Type: Ship. MMSI: 259680000.

Date/timePositionNaut miles runAvg speedWind from/ knotsBaromVisibWave heightAir tempDewpointWater temp
2014-Jul-28 15:33N 67°08' E 013°59'4 3.3
2014-Jul-28 14:13N 67°04' E 014°04'0 0.0
2014-Jul-28 13:33N 67°04' E 014°04'4 4.0
2014-Jul-28 12:33N 67°08' E 013°59'2 0.5
2014-Jul-28 09:29N 67°06' E 013°58'2 1.4
2014-Jul-28 08:06N 67°08' E 013°59'3 1.1
2014-Jul-28 05:22N 67°05' E 013°60'3 3.2
2014-Jul-28 04:26N 67°08' E 013°59'0 0.0
2014-Jul-28 03:33N 67°08' E 013°59'0 0.0
2014-Jul-28 02:33N 67°08' E 013°59'0 0.0
2014-Jul-28 01:10N 67°08' E 013°59'0 0.0
2014-Jul-28 00:03N 67°08' E 013°59'0 0.0
2014-Jul-27 23:24N 67°08' E 013°59'0 0.0
2014-Jul-27 22:32N 67°08' E 013°59'0 0.0
2014-Jul-27 21:33N 67°08' E 013°59'0 0.0
2014-Jul-27 20:33N 67°08' E 013°59'0 0.0
2014-Jul-27 19:33N 67°08' E 013°59'3 1.4
2014-Jul-27 17:18N 67°05' E 014°00'2 2.0
2014-Jul-27 16:31N 67°07' E 013°59'2 1.1
2014-Jul-27 15:07N 67°05' E 014°00'3 5.6
2014-Jul-27 14:33N 67°08' E 013°59'1 1.1
2014-Jul-27 13:33N 67°07' E 013°59'1 0.2
2014-Jul-27 08:03N 67°06' E 013°58'0 0.3
2014-Jul-27 07:29N 67°06' E 013°58'0 0.0
2014-Jul-26 17:08N 67°06' E 013°58'1 0.3
2014-Jul-26 15:26N 67°06' E 013°59'0 0.1
2014-Jul-26 09:29N 67°06' E 013°58'2 2.1
2014-Jul-26 08:32N 67°08' E 013°59'1 1.2
2014-Jul-26 07:33N 67°07' E 013°59'1 0.5
2014-Jul-26 06:14N 67°06' E 013°58'2 2.5
2014-Jul-26 05:30N 67°08' E 013°59'0 0.0
2014-Jul-26 04:31N 67°08' E 013°59'0 0.0
2014-Jul-26 03:31N 67°08' E 013°59'0 0.0
2014-Jul-26 02:33N 67°08' E 013°59'0 0.0
2014-Jul-26 01:33N 67°08' E 013°59'0 0.0
2014-Jul-25 23:32N 67°08' E 013°59'0 0.0
2014-Jul-25 22:12N 67°08' E 013°59'0 0.0
2014-Jul-25 21:27N 67°08' E 013°59'0 0.0
2014-Jul-25 20:33N 67°08' E 013°59'0 0.0
2014-Jul-25 19:20N 67°08' E 013°59'2 1.0
2014-Jul-25 17:33N 67°06' E 013°58'1 0.7
2014-Jul-25 15:32N 67°05' E 013°60'0 0.0
2014-Jul-25 13:22N 67°05' E 013°60'3 3.6
2014-Jul-25 12:32N 67°08' E 013°59'0 0.0
2014-Jul-25 11:30N 67°08' E 013°59'2 0.9
2014-Jul-25 09:28N 67°06' E 013°58'2 1.9
2014-Jul-25 08:33N 67°08' E 013°59'1 0.3
2014-Jul-25 05:08N 67°07' E 013°58'1 0.7
2014-Jul-25 03:30N 67°08' E 013°59'0 0.0
2014-Jul-25 02:32N 67°08' E 013°59'0 0.0
2014-Jul-25 01:33N 67°08' E 013°59'0 0.0
2014-Jul-25 00:22N 67°08' E 013°59'0 0.0
2014-Jul-24 23:06N 67°08' E 013°59'0 0.0
2014-Jul-24 22:12N 67°08' E 013°59'0 0.0
2014-Jul-24 21:33N 67°08' E 013°59'0 0.0
2014-Jul-24 20:33N 67°08' E 013°59'0 0.0
2014-Jul-24 19:33N 67°08' E 013°59'3 2.6
2014-Jul-24 18:23N 67°05' E 014°00'3 0.3
2014-Jul-24 09:04N 67°08' E 013°59'0 0.0
2014-Jul-24 08:33N 67°08' E 013°59'2 1.9
2014-Jul-24 07:33N 67°06' E 013°58'0 0.2
2014-Jul-24 05:15N 67°06' E 013°58'2 3.2
2014-Jul-24 04:32N 67°08' E 013°59'0 0.0
2014-Jul-24 03:33N 67°08' E 013°59'0 0.0
2014-Jul-24 02:31N 67°08' E 013°59'0 0.0
2014-Jul-24 01:33N 67°08' E 013°59'0 0.0
2014-Jul-24 00:33N 67°08' E 013°59'0 0.0
2014-Jul-23 23:33N 67°08' E 013°59'0 0.0
2014-Jul-23 22:33N 67°08' E 013°59'0 0.0
2014-Jul-23 21:33N 67°08' E 013°59'0 0.0
2014-Jul-23 20:33N 67°08' E 013°59'0 0.0
2014-Jul-23 19:33N 67°08' E 013°59'3 2.3
2014-Jul-23 18:12N 67°05' E 014°00'2 2.3
2014-Jul-23 17:31N 67°07' E 013°59'2 1.5
2014-Jul-23 16:31N 67°05' E 013°60'3 3.1
2014-Jul-23 15:33N 67°08' E 013°59'3 1.4
2014-Jul-23 13:22N 67°05' E 013°60'3 1.6
2014-Jul-23 11:29N 67°08' E 013°59'1 0.4
2014-Jul-23 09:33N 67°07' E 013°59'1 0.8
2014-Jul-23 08:33N 67°08' E 013°59'1 1.3
2014-Jul-23 07:33N 67°07' E 013°59'2 0.9
2014-Jul-23 05:28N 67°05' E 014°00'3 3.2
2014-Jul-23 04:31N 67°08' E 013°59'0 0.0
2014-Jul-23 03:33N 67°08' E 013°59'0 0.0
2014-Jul-23 02:33N 67°08' E 013°59'0 0.0
2014-Jul-23 01:33N 67°08' E 013°59'0 0.0
2014-Jul-23 00:33N 67°08' E 013°59'0 0.0
2014-Jul-22 23:30N 67°08' E 013°59'0 0.0
2014-Jul-22 22:33N 67°08' E 013°59'0 0.0
2014-Jul-22 21:33N 67°08' E 013°59'0 0.0
2014-Jul-22 20:33N 67°08' E 013°59'0 0.0
2014-Jul-22 19:26N 67°08' E 013°59'3 2.6
2014-Jul-22 18:15N 67°05' E 013°60'1 1.7
2014-Jul-22 17:33N 67°06' E 013°58'1 1.2
2014-Jul-22 16:32N 67°05' E 014°00'3 2.5
2014-Jul-22 15:17N 67°08' E 013°59'3 1.6
2014-Jul-22 13:23N 67°05' E 014°00'3 3.7
2014-Jul-22 12:33N 67°08' E 013°59'0 0.0
2014-Jul-22 11:33N 67°08' E 013°59'3 2.8
2014-Jul-22 10:30N 67°05' E 013°60'1 0.7
2014-Jul-22 09:33N 67°06' E 013°59'3 2.6
2014-Jul-22 08:33N 67°08' E 013°59'1 1.2
2014-Jul-22 07:33N 67°07' E 013°59'2 0.8
2014-Jul-22 05:22N 67°05' E 013°60'3 3.5
2014-Jul-22 04:29N 67°08' E 013°59'0 0.0
2014-Jul-22 03:31N 67°08' E 013°59'0 0.0
2014-Jul-22 02:31N 67°08' E 013°59'0 0.0
2014-Jul-22 01:33N 67°08' E 013°59'0 0.0
2014-Jul-22 00:33N 67°08' E 013°59'0 0.0
2014-Jul-21 23:33N 67°08' E 013°59'0 0.0
2014-Jul-21 22:33N 67°08' E 013°59'0 0.0
2014-Jul-21 21:33N 67°08' E 013°59'0 0.0
2014-Jul-21 20:33N 67°08' E 013°59'0 0.0
2014-Jul-21 20:18N 67°08' E 013°59'0 0.0
2014-Jul-21 19:33N 67°08' E 013°59'2 1.5
2014-Jul-21 18:10N 67°06' E 013°58'0 0.5
2014-Jul-21 17:32N 67°07' E 013°58'1 0.7
2014-Jul-21 16:27N 67°06' E 013°58'2 2.7
2014-Jul-21 15:33N 67°08' E 013°59'3 1.2
2014-Jul-21 13:07N 67°05' E 013°60'2 3.8
2014-Jul-21 12:33N 67°07' E 013°59'2 0.5
2014-Jul-21 09:32N 67°06' E 013°59'2 2.5
2014-Jul-21 08:32N 67°08' E 013°59'2 1.6
2014-Jul-21 07:30N 67°07' E 013°59'1 0.7
2014-Jul-21 05:24N 67°05' E 014°00'3 3.6
2014-Jul-21 04:33N 67°08' E 013°59'0 0.0
2014-Jul-21 03:32N 67°08' E 013°59'0 0.0
2014-Jul-21 02:25N 67°08' E 013°59'0 0.0
2014-Jul-21 01:30N 67°08' E 013°59'0 0.0
2014-Jul-21 00:33N 67°08' E 013°59'0 0.0
2014-Jul-20 23:27N 67°08' E 013°59'0 0.0
2014-Jul-20 22:28N 67°08' E 013°59'0 0.0
2014-Jul-20 21:09N 67°08' E 013°59'0 0.0
2014-Jul-20 20:31N 67°08' E 013°59'0 0.0
2014-Jul-20 19:32N 67°08' E 013°59'2 0.9
2014-Jul-20 17:10N 67°06' E 013°58'1 0.9
2014-Jul-20 16:32N 67°07' E 013°59'2 0.8
2014-Jul-20 14:33N 67°08' E 013°59'2 1.7
2014-Jul-20 13:33N 67°06' E 013°59'0 0.1
2014-Jul-20 08:05N 67°06' E 013°59'1 1.4
2014-Jul-20 07:32N 67°07' E 013°59'1 0.1
2014-Jul-19 17:26N 67°06' E 013°59'1 1.0
2014-Jul-19 16:30N 67°07' E 013°59'1 0.8
2014-Jul-19 15:27N 67°06' E 013°59'1 0.2
2014-Jul-19 09:23N 67°07' E 013°59'0 0.2
2014-Jul-19 07:33N 67°07' E 013°59'2 2.1
2014-Jul-19 06:28N 67°05' E 014°02'3 2.7
2014-Jul-19 05:10N 67°08' E 013°59'0 0.0
2014-Jul-19 04:22N 67°08' E 013°59'0 0.0
2014-Jul-19 03:24N 67°08' E 013°59'0 0.0
2014-Jul-19 02:23N 67°08' E 013°59'0 0.0
2014-Jul-19 01:24N 67°08' E 013°59'0 0.0
2014-Jul-19 00:31N 67°08' E 013°59'0 0.0
2014-Jul-18 23:32N 67°08' E 013°59'0 0.0
2014-Jul-18 22:30N 67°08' E 013°59'0 0.0
2014-Jul-18 21:31N 67°08' E 013°59'0 0.0
2014-Jul-18 20:20N 67°08' E 013°59'0 0.0
2014-Jul-18 19:32N 67°08' E 013°59'2 1.5
2014-Jul-18 18:13N 67°06' E 013°58'0 0.5
2014-Jul-18 17:32N 67°07' E 013°59'  
Track history (hours):
 
Tides and Currents Weather Stations Pressure Air Temp Water Temp Dewpoint Dewpoint Depression Visibility Wind Speed Wind Dir Waves Ship Positions

Gildeskaal

Last reported at 2014-Jul-28 15:33 UTC. Time now 2014-Jul-28 16:31 UTC.
Position N 67°08' E 013°59'.

Length 52 m; draft 3.2 m.

Type: Ship. MMSI: 259680000.

Date/timePositionNaut miles runAvg speedWind from/ knotsBaromVisibWave heightAir tempDewpointWater temp
2014-Jul-28 15:33N 67°08' E 013°59'4 3.3
2014-Jul-28 14:13N 67°04' E 014°04'0 0.0
2014-Jul-28 13:33N 67°04' E 014°04'4 4.0
2014-Jul-28 12:33N 67°08' E 013°59'2 0.5
2014-Jul-28 09:29N 67°06' E 013°58'2 1.4
2014-Jul-28 08:06N 67°08' E 013°59'3 1.1
2014-Jul-28 05:22N 67°05' E 013°60'3 3.2
2014-Jul-28 04:26N 67°08' E 013°59'0 0.0
2014-Jul-28 03:33N 67°08' E 013°59'0 0.0
2014-Jul-28 02:33N 67°08' E 013°59'0 0.0
2014-Jul-28 01:10N 67°08' E 013°59'0 0.0
2014-Jul-28 00:03N 67°08' E 013°59'0 0.0
2014-Jul-27 23:24N 67°08' E 013°59'0 0.0
2014-Jul-27 22:32N 67°08' E 013°59'0 0.0
2014-Jul-27 21:33N 67°08' E 013°59'0 0.0
2014-Jul-27 20:33N 67°08' E 013°59'0 0.0
2014-Jul-27 19:33N 67°08' E 013°59'3 1.4
2014-Jul-27 17:18N 67°05' E 014°00'2 2.0
2014-Jul-27 16:31N 67°07' E 013°59'2 1.1
2014-Jul-27 15:07N 67°05' E 014°00'3 5.6
2014-Jul-27 14:33N 67°08' E 013°59'1 1.1
2014-Jul-27 13:33N 67°07' E 013°59'1 0.2
2014-Jul-27 08:03N 67°06' E 013°58'0 0.3
2014-Jul-27 07:29N 67°06' E 013°58'0 0.0
2014-Jul-26 17:08N 67°06' E 013°58'1 0.3
2014-Jul-26 15:26N 67°06' E 013°59'0 0.1
2014-Jul-26 09:29N 67°06' E 013°58'2 2.1
2014-Jul-26 08:32N 67°08' E 013°59'1 1.2
2014-Jul-26 07:33N 67°07' E 013°59'1 0.5
2014-Jul-26 06:14N 67°06' E 013°58'2 2.5
2014-Jul-26 05:30N 67°08' E 013°59'0 0.0
2014-Jul-26 04:31N 67°08' E 013°59'0 0.0
2014-Jul-26 03:31N 67°08' E 013°59'0 0.0
2014-Jul-26 02:33N 67°08' E 013°59'0 0.0
2014-Jul-26 01:33N 67°08' E 013°59'0 0.0
2014-Jul-25 23:32N 67°08' E 013°59'0 0.0
2014-Jul-25 22:12N 67°08' E 013°59'0 0.0
2014-Jul-25 21:27N 67°08' E 013°59'0 0.0
2014-Jul-25 20:33N 67°08' E 013°59'0 0.0
2014-Jul-25 19:20N 67°08' E 013°59'2 1.0
2014-Jul-25 17:33N 67°06' E 013°58'1 0.7
2014-Jul-25 15:32N 67°05' E 013°60'0 0.0
2014-Jul-25 13:22N 67°05' E 013°60'3 3.6
2014-Jul-25 12:32N 67°08' E 013°59'0 0.0
2014-Jul-25 11:30N 67°08' E 013°59'2 0.9
2014-Jul-25 09:28N 67°06' E 013°58'2 1.9
2014-Jul-25 08:33N 67°08' E 013°59'1 0.3
2014-Jul-25 05:08N 67°07' E 013°58'1 0.7
2014-Jul-25 03:30N 67°08' E 013°59'0 0.0
2014-Jul-25 02:32N 67°08' E 013°59'0 0.0
2014-Jul-25 01:33N 67°08' E 013°59'0 0.0
2014-Jul-25 00:22N 67°08' E 013°59'0 0.0
2014-Jul-24 23:06N 67°08' E 013°59'0 0.0
2014-Jul-24 22:12N 67°08' E 013°59'0 0.0
2014-Jul-24 21:33N 67°08' E 013°59'0 0.0
2014-Jul-24 20:33N 67°08' E 013°59'0 0.0
2014-Jul-24 19:33N 67°08' E 013°59'3 2.6
2014-Jul-24 18:23N 67°05' E 014°00'3 0.3
2014-Jul-24 09:04N 67°08' E 013°59'0 0.0
2014-Jul-24 08:33N 67°08' E 013°59'2 1.9
2014-Jul-24 07:33N 67°06' E 013°58'0 0.2
2014-Jul-24 05:15N 67°06' E 013°58'2 3.2
2014-Jul-24 04:32N 67°08' E 013°59'0 0.0
2014-Jul-24 03:33N 67°08' E 013°59'0 0.0
2014-Jul-24 02:31N 67°08' E 013°59'0 0.0
2014-Jul-24 01:33N 67°08' E 013°59'0 0.0
2014-Jul-24 00:33N 67°08' E 013°59'0 0.0
2014-Jul-23 23:33N 67°08' E 013°59'0 0.0
2014-Jul-23 22:33N 67°08' E 013°59'0 0.0
2014-Jul-23 21:33N 67°08' E 013°59'0 0.0
2014-Jul-23 20:33N 67°08' E 013°59'0 0.0
2014-Jul-23 19:33N 67°08' E 013°59'3 2.3
2014-Jul-23 18:12N 67°05' E 014°00'2 2.3
2014-Jul-23 17:31N 67°07' E 013°59'2 1.5
2014-Jul-23 16:31N 67°05' E 013°60'3 3.1
2014-Jul-23 15:33N 67°08' E 013°59'3 1.4
2014-Jul-23 13:22N 67°05' E 013°60'3 1.6
2014-Jul-23 11:29N 67°08' E 013°59'1 0.4
2014-Jul-23 09:33N 67°07' E 013°59'1 0.8
2014-Jul-23 08:33N 67°08' E 013°59'1 1.3
2014-Jul-23 07:33N 67°07' E 013°59'2 0.9
2014-Jul-23 05:28N 67°05' E 014°00'3 3.2
2014-Jul-23 04:31N 67°08' E 013°59'0 0.0
2014-Jul-23 03:33N 67°08' E 013°59'0 0.0
2014-Jul-23 02:33N 67°08' E 013°59'0 0.0
2014-Jul-23 01:33N 67°08' E 013°59'0 0.0
2014-Jul-23 00:33N 67°08' E 013°59'0 0.0
2014-Jul-22 23:30N 67°08' E 013°59'0 0.0
2014-Jul-22 22:33N 67°08' E 013°59'0 0.0
2014-Jul-22 21:33N 67°08' E 013°59'0 0.0
2014-Jul-22 20:33N 67°08' E 013°59'0 0.0
2014-Jul-22 19:26N 67°08' E 013°59'3 2.6
2014-Jul-22 18:15N 67°05' E 013°60'1 1.7
2014-Jul-22 17:33N 67°06' E 013°58'1 1.2
2014-Jul-22 16:32N 67°05' E 014°00'3 2.5
2014-Jul-22 15:17N 67°08' E 013°59'3 1.6
2014-Jul-22 13:23N 67°05' E 014°00'3 3.7
2014-Jul-22 12:33N 67°08' E 013°59'0 0.0
2014-Jul-22 11:33N 67°08' E 013°59'3 2.8
2014-Jul-22 10:30N 67°05' E 013°60'1 0.7
2014-Jul-22 09:33N 67°06' E 013°59'3 2.6
2014-Jul-22 08:33N 67°08' E 013°59'1 1.2
2014-Jul-22 07:33N 67°07' E 013°59'2 0.8
2014-Jul-22 05:22N 67°05' E 013°60'3 3.5
2014-Jul-22 04:29N 67°08' E 013°59'0 0.0
2014-Jul-22 03:31N 67°08' E 013°59'0 0.0
2014-Jul-22 02:31N 67°08' E 013°59'0 0.0
2014-Jul-22 01:33N 67°08' E 013°59'0 0.0
2014-Jul-22 00:33N 67°08' E 013°59'0 0.0
2014-Jul-21 23:33N 67°08' E 013°59'0 0.0
2014-Jul-21 22:33N 67°08' E 013°59'0 0.0
2014-Jul-21 21:33N 67°08' E 013°59'0 0.0
2014-Jul-21 20:33N 67°08' E 013°59'0 0.0
2014-Jul-21 20:18N 67°08' E 013°59'0 0.0
2014-Jul-21 19:33N 67°08' E 013°59'2 1.5
2014-Jul-21 18:10N 67°06' E 013°58'0 0.5
2014-Jul-21 17:32N 67°07' E 013°58'1 0.7
2014-Jul-21 16:27N 67°06' E 013°58'2 2.7
2014-Jul-21 15:33N 67°08' E 013°59'3 1.2
2014-Jul-21 13:07N 67°05' E 013°60'2 3.8
2014-Jul-21 12:33N 67°07' E 013°59'2 0.5
2014-Jul-21 09:32N 67°06' E 013°59'2 2.5
2014-Jul-21 08:32N 67°08' E 013°59'2 1.6
2014-Jul-21 07:30N 67°07' E 013°59'1 0.7
2014-Jul-21 05:24N 67°05' E 014°00'3 3.6
2014-Jul-21 04:33N 67°08' E 013°59'0 0.0
2014-Jul-21 03:32N 67°08' E 013°59'0 0.0
2014-Jul-21 02:25N 67°08' E 013°59'0 0.0
2014-Jul-21 01:30N 67°08' E 013°59'0 0.0
2014-Jul-21 00:33N 67°08' E 013°59'0 0.0
2014-Jul-20 23:27N 67°08' E 013°59'0 0.0
2014-Jul-20 22:28N 67°08' E 013°59'0 0.0
2014-Jul-20 21:09N 67°08' E 013°59'0 0.0
2014-Jul-20 20:31N 67°08' E 013°59'0 0.0
2014-Jul-20 19:32N 67°08' E 013°59'2 0.9
2014-Jul-20 17:10N 67°06' E 013°58'1 0.9
2014-Jul-20 16:32N 67°07' E 013°59'2 0.8
2014-Jul-20 14:33N 67°08' E 013°59'2 1.7
2014-Jul-20 13:33N 67°06' E 013°59'0 0.1
2014-Jul-20 08:05N 67°06' E 013°59'1 1.4
2014-Jul-20 07:32N 67°07' E 013°59'1 0.1
2014-Jul-19 17:26N 67°06' E 013°59'1 1.0
2014-Jul-19 16:30N 67°07' E 013°59'1 0.8
2014-Jul-19 15:27N 67°06' E 013°59'1 0.2
2014-Jul-19 09:23N 67°07' E 013°59'0 0.2
2014-Jul-19 07:33N 67°07' E 013°59'2 2.1
2014-Jul-19 06:28N 67°05' E 014°02'3 2.7
2014-Jul-19 05:10N 67°08' E 013°59'0 0.0
2014-Jul-19 04:22N 67°08' E 013°59'0 0.0
2014-Jul-19 03:24N 67°08' E 013°59'0 0.0
2014-Jul-19 02:23N 67°08' E 013°59'0 0.0
2014-Jul-19 01:24N 67°08' E 013°59'0 0.0
2014-Jul-19 00:31N 67°08' E 013°59'0 0.0
2014-Jul-18 23:32N 67°08' E 013°59'0 0.0
2014-Jul-18 22:30N 67°08' E 013°59'0 0.0
2014-Jul-18 21:31N 67°08' E 013°59'0 0.0
2014-Jul-18 20:20N 67°08' E 013°59'0 0.0
2014-Jul-18 19:32N 67°08' E 013°59'2 1.5
2014-Jul-18 18:13N 67°06' E 013°58'0 0.5
2014-Jul-18 17:32N 67°07' E 013°59'  

Dump ship's entire track history